San Roberto — WDI9265 — position and weather

sailwx.info

Track history (hours):
 
Tides and Currents Weather Stations Pressure Air Temp Water Temp Dewpoint Dewpoint Depression Visibility Wind Speed Wind Dir Waves Ship Positions

San Roberto

Owner: Buffalo Marine Service, Inc., Houston, TX. More information available from US FCC via Universal Licensing System and Coast Guard Vessel Documentation Center.

Last reported at 2017-Nov-19 19:15 UTC. Time now 2017-Nov-20 22:49 UTC.
Position N 29°31' W 094°53'.

Length 29 m; draft 3 m.

Type: Tug. MMSI: 367746950.

Date/timePositionNaut miles runAvg speedWind from/ knotsBaromVisibWave heightAir tempDewpointWater temp
2017-Nov-19 19:15N 29°31' W 094°53'2 6.9
2017-Nov-19 19:00N 29°32' W 094°54'4 7.5
2017-Nov-19 18:31N 29°35' W 094°56'4 7.8
2017-Nov-19 18:00N 29°39' W 094°58'4 7.6
2017-Nov-19 17:30N 29°42' W 095°00'3 6.1
2017-Nov-19 17:01N 29°44' W 095°03'0 0.2
2017-Nov-19 16:31N 29°44' W 095°03'0 0.0
2017-Nov-19 16:00N 29°44' W 095°03'0 0.0
2017-Nov-19 15:30N 29°44' W 095°03'0 0.0
2017-Nov-19 15:01N 29°44' W 095°03'0 0.0
2017-Nov-19 14:30N 29°44' W 095°03'0 0.0
2017-Nov-19 14:01N 29°44' W 095°03'0 0.0
2017-Nov-19 13:30N 29°44' W 095°03'0 0.0
2017-Nov-19 13:01N 29°44' W 095°03'0 0.0
2017-Nov-19 12:31N 29°44' W 095°03'0 0.0
2017-Nov-19 12:00N 29°44' W 095°03'0 0.0
2017-Nov-19 11:30N 29°44' W 095°03'0 0.0
2017-Nov-19 11:00N 29°44' W 095°03'0 0.0
2017-Nov-19 10:30N 29°44' W 095°03'0 0.0
2017-Nov-19 10:00N 29°44' W 095°03'0 0.0
2017-Nov-19 09:30N 29°44' W 095°03'0 0.0
2017-Nov-19 09:01N 29°44' W 095°03'0 0.0
2017-Nov-19 08:30N 29°44' W 095°03'0 0.0
2017-Nov-19 08:01N 29°44' W 095°03'0 0.0
2017-Nov-19 07:30N 29°44' W 095°03'0 0.0
2017-Nov-19 07:01N 29°44' W 095°03'0 0.0
2017-Nov-19 06:31N 29°44' W 095°03'0 0.0
2017-Nov-19 06:00N 29°44' W 095°03'0 0.0
2017-Nov-19 05:30N 29°44' W 095°03'0 0.0
2017-Nov-19 05:00N 29°44' W 095°03'0 0.0
2017-Nov-19 04:30N 29°44' W 095°03'0 0.0
2017-Nov-19 04:01N 29°44' W 095°03'0 0.0
2017-Nov-19 03:30N 29°44' W 095°03'0 0.0
2017-Nov-19 03:01N 29°44' W 095°03'0 0.0
2017-Nov-19 02:30N 29°44' W 095°03'0 0.2
2017-Nov-19 02:00N 29°44' W 095°03'0 0.0
2017-Nov-18 00:39N 29°44' W 095°03'0 1.1
2017-Nov-18 00:30N 29°44' W 095°03'0 0.0
2017-Nov-17 19:37N 29°44' W 095°03'0 0.1
2017-Nov-17 19:22N 29°44' W 095°03'0 0.6
2017-Nov-17 19:00N 29°44' W 095°03'0 0.1
2017-Nov-17 18:31N 29°44' W 095°03'0 0.1
2017-Nov-17 18:00N 29°44' W 095°03'0 0.0
2017-Nov-17 17:30N 29°44' W 095°03'0 0.0
2017-Nov-17 17:00N 29°44' W 095°03'0 0.0
2017-Nov-17 16:31N 29°44' W 095°03'0 0.1
2017-Nov-17 16:00N 29°44' W 095°03'0 0.0
2017-Nov-17 15:30N 29°44' W 095°03'0 0.0
2017-Nov-17 15:00N 29°44' W 095°03'0 0.0
2017-Nov-17 14:30N 29°44' W 095°03'0 0.0
2017-Nov-17 14:01N 29°44' W 095°03'0 0.0
2017-Nov-17 13:30N 29°44' W 095°03'0 0.0
2017-Nov-17 13:00N 29°44' W 095°03'0 0.0
2017-Nov-17 12:31N 29°44' W 095°03'0 0.0
2017-Nov-17 12:00N 29°44' W 095°03'0 0.0
2017-Nov-17 11:30N 29°44' W 095°03'0 0.0
2017-Nov-17 11:01N 29°44' W 095°03'0 0.0
2017-Nov-17 10:30N 29°44' W 095°03'0 0.0
2017-Nov-17 10:01N 29°44' W 095°03'0 0.0
2017-Nov-17 09:30N 29°44' W 095°03'0 0.0
2017-Nov-17 09:00N 29°44' W 095°03'0 0.0
2017-Nov-17 08:31N 29°44' W 095°03'0 0.0
2017-Nov-17 08:01N 29°44' W 095°03'0 0.0
2017-Nov-17 07:31N 29°44' W 095°03'0 0.0
2017-Nov-17 07:00N 29°44' W 095°03'0 0.0
2017-Nov-17 06:30N 29°44' W 095°03'0 0.0
2017-Nov-17 06:00N 29°44' W 095°03'0 0.0
2017-Nov-17 05:30N 29°44' W 095°03'0 0.0
2017-Nov-17 05:01N 29°44' W 095°03'0 0.0
2017-Nov-17 04:31N 29°44' W 095°03'0 0.0
2017-Nov-17 04:00N 29°44' W 095°03'0 0.5
2017-Nov-17 03:30N 29°44' W 095°03'1 2.4
2017-Nov-17 03:01N 29°44' W 095°01'3 6.2
2017-Nov-17 02:30N 29°41' W 094°59'4 7.2
2017-Nov-17 02:00N 29°38' W 094°58'4 7.3
2017-Nov-17 01:31N 29°35' W 094°56'4 7.5
2017-Nov-17 01:00N 29°31' W 094°53'11 7.8
2017-Nov-16 23:39N 29°22' W 094°49'1 7.0
2017-Nov-16 23:29N 29°22' W 094°50'  
2017-Nov-13 02:00N 29°23' W 094°52'0 0.0
2017-Nov-13 01:31N 29°23' W 094°52'0 0.0
2017-Nov-13 01:00N 29°23' W 094°52'0 0.0
2017-Nov-13 00:30N 29°23' W 094°52'0 0.0
2017-Nov-13 00:01N 29°23' W 094°52'0 0.0
2017-Nov-12 05:35N 29°23' W 094°52'0 0.0
2017-Nov-12 05:25N 29°23' W 094°52'0 0.0
2017-Nov-12 04:56N 29°23' W 094°52'0 0.0
2017-Nov-12 04:13N 29°23' W 094°52'0 0.0
2017-Nov-12 03:59N 29°23' W 094°52'7 0.1
2017-Nov-10 01:52N 29°30' W 094°52'3 7.2
2017-Nov-10 01:30N 29°32' W 094°54'4 7.7
2017-Nov-10 01:01N 29°35' W 094°56'4 8.0
2017-Nov-10 00:31N 29°39' W 094°58'4 8.1
2017-Nov-10 00:01N 29°42' W 095°01'3 5.5
2017-Nov-09 23:30N 29°44' W 095°03'0 0.1
2017-Nov-09 22:55N 29°44' W 095°03'  
Track history (hours):
 
Tides and Currents Weather Stations Pressure Air Temp Water Temp Dewpoint Dewpoint Depression Visibility Wind Speed Wind Dir Waves Ship Positions

San Roberto

Owner: Buffalo Marine Service, Inc., Houston, TX. More information available from US FCC via Universal Licensing System and Coast Guard Vessel Documentation Center.

Last reported at 2017-Nov-19 19:15 UTC. Time now 2017-Nov-20 22:49 UTC.
Position N 29°31' W 094°53'.

Length 29 m; draft 3 m.

Type: Tug. MMSI: 367746950.

Date/timePositionNaut miles runAvg speedWind from/ knotsBaromVisibWave heightAir tempDewpointWater temp
2017-Nov-19 19:15N 29°31' W 094°53'2 6.9
2017-Nov-19 19:00N 29°32' W 094°54'4 7.5
2017-Nov-19 18:31N 29°35' W 094°56'4 7.8
2017-Nov-19 18:00N 29°39' W 094°58'4 7.6
2017-Nov-19 17:30N 29°42' W 095°00'3 6.1
2017-Nov-19 17:01N 29°44' W 095°03'0 0.2
2017-Nov-19 16:31N 29°44' W 095°03'0 0.0
2017-Nov-19 16:00N 29°44' W 095°03'0 0.0
2017-Nov-19 15:30N 29°44' W 095°03'0 0.0
2017-Nov-19 15:01N 29°44' W 095°03'0 0.0
2017-Nov-19 14:30N 29°44' W 095°03'0 0.0
2017-Nov-19 14:01N 29°44' W 095°03'0 0.0
2017-Nov-19 13:30N 29°44' W 095°03'0 0.0
2017-Nov-19 13:01N 29°44' W 095°03'0 0.0
2017-Nov-19 12:31N 29°44' W 095°03'0 0.0
2017-Nov-19 12:00N 29°44' W 095°03'0 0.0
2017-Nov-19 11:30N 29°44' W 095°03'0 0.0
2017-Nov-19 11:00N 29°44' W 095°03'0 0.0
2017-Nov-19 10:30N 29°44' W 095°03'0 0.0
2017-Nov-19 10:00N 29°44' W 095°03'0 0.0
2017-Nov-19 09:30N 29°44' W 095°03'0 0.0
2017-Nov-19 09:01N 29°44' W 095°03'0 0.0
2017-Nov-19 08:30N 29°44' W 095°03'0 0.0
2017-Nov-19 08:01N 29°44' W 095°03'0 0.0
2017-Nov-19 07:30N 29°44' W 095°03'0 0.0
2017-Nov-19 07:01N 29°44' W 095°03'0 0.0
2017-Nov-19 06:31N 29°44' W 095°03'0 0.0
2017-Nov-19 06:00N 29°44' W 095°03'0 0.0
2017-Nov-19 05:30N 29°44' W 095°03'0 0.0
2017-Nov-19 05:00N 29°44' W 095°03'0 0.0
2017-Nov-19 04:30N 29°44' W 095°03'0 0.0
2017-Nov-19 04:01N 29°44' W 095°03'0 0.0
2017-Nov-19 03:30N 29°44' W 095°03'0 0.0
2017-Nov-19 03:01N 29°44' W 095°03'0 0.0
2017-Nov-19 02:30N 29°44' W 095°03'0 0.2
2017-Nov-19 02:00N 29°44' W 095°03'0 0.0
2017-Nov-18 00:39N 29°44' W 095°03'0 1.1
2017-Nov-18 00:30N 29°44' W 095°03'0 0.0
2017-Nov-17 19:37N 29°44' W 095°03'0 0.1
2017-Nov-17 19:22N 29°44' W 095°03'0 0.6
2017-Nov-17 19:00N 29°44' W 095°03'0 0.1
2017-Nov-17 18:31N 29°44' W 095°03'0 0.1
2017-Nov-17 18:00N 29°44' W 095°03'0 0.0
2017-Nov-17 17:30N 29°44' W 095°03'0 0.0
2017-Nov-17 17:00N 29°44' W 095°03'0 0.0
2017-Nov-17 16:31N 29°44' W 095°03'0 0.1
2017-Nov-17 16:00N 29°44' W 095°03'0 0.0
2017-Nov-17 15:30N 29°44' W 095°03'0 0.0
2017-Nov-17 15:00N 29°44' W 095°03'0 0.0
2017-Nov-17 14:30N 29°44' W 095°03'0 0.0
2017-Nov-17 14:01N 29°44' W 095°03'0 0.0
2017-Nov-17 13:30N 29°44' W 095°03'0 0.0
2017-Nov-17 13:00N 29°44' W 095°03'0 0.0
2017-Nov-17 12:31N 29°44' W 095°03'0 0.0
2017-Nov-17 12:00N 29°44' W 095°03'0 0.0
2017-Nov-17 11:30N 29°44' W 095°03'0 0.0
2017-Nov-17 11:01N 29°44' W 095°03'0 0.0
2017-Nov-17 10:30N 29°44' W 095°03'0 0.0
2017-Nov-17 10:01N 29°44' W 095°03'0 0.0
2017-Nov-17 09:30N 29°44' W 095°03'0 0.0
2017-Nov-17 09:00N 29°44' W 095°03'0 0.0
2017-Nov-17 08:31N 29°44' W 095°03'0 0.0
2017-Nov-17 08:01N 29°44' W 095°03'0 0.0
2017-Nov-17 07:31N 29°44' W 095°03'0 0.0
2017-Nov-17 07:00N 29°44' W 095°03'0 0.0
2017-Nov-17 06:30N 29°44' W 095°03'0 0.0
2017-Nov-17 06:00N 29°44' W 095°03'0 0.0
2017-Nov-17 05:30N 29°44' W 095°03'0 0.0
2017-Nov-17 05:01N 29°44' W 095°03'0 0.0
2017-Nov-17 04:31N 29°44' W 095°03'0 0.0
2017-Nov-17 04:00N 29°44' W 095°03'0 0.5
2017-Nov-17 03:30N 29°44' W 095°03'1 2.4
2017-Nov-17 03:01N 29°44' W 095°01'3 6.2
2017-Nov-17 02:30N 29°41' W 094°59'4 7.2
2017-Nov-17 02:00N 29°38' W 094°58'4 7.3
2017-Nov-17 01:31N 29°35' W 094°56'4 7.5
2017-Nov-17 01:00N 29°31' W 094°53'11 7.8
2017-Nov-16 23:39N 29°22' W 094°49'1 7.0
2017-Nov-16 23:29N 29°22' W 094°50'  
2017-Nov-13 02:00N 29°23' W 094°52'0 0.0
2017-Nov-13 01:31N 29°23' W 094°52'0 0.0
2017-Nov-13 01:00N 29°23' W 094°52'0 0.0
2017-Nov-13 00:30N 29°23' W 094°52'0 0.0
2017-Nov-13 00:01N 29°23' W 094°52'0 0.0
2017-Nov-12 05:35N 29°23' W 094°52'0 0.0
2017-Nov-12 05:25N 29°23' W 094°52'0 0.0
2017-Nov-12 04:56N 29°23' W 094°52'0 0.0
2017-Nov-12 04:13N 29°23' W 094°52'0 0.0
2017-Nov-12 03:59N 29°23' W 094°52'7 0.1
2017-Nov-10 01:52N 29°30' W 094°52'3 7.2
2017-Nov-10 01:30N 29°32' W 094°54'4 7.7
2017-Nov-10 01:01N 29°35' W 094°56'4 8.0
2017-Nov-10 00:31N 29°39' W 094°58'4 8.1
2017-Nov-10 00:01N 29°42' W 095°01'3 5.5
2017-Nov-09 23:30N 29°44' W 095°03'0 0.1
2017-Nov-09 22:55N 29°44' W 095°03'  

Dump ship's entire track history